Time;durP1;ratioP1;P1;durP2;ratioP2;P2;SDS_P1;SDS_P2;PMS_P1;PMS_P2;Temp;Humidity;BMP_temperature;BMP_pressure;BME280_temperature;BME280_humidity;BME280_pressure;Samples;Min_cycle;Max_cycle;Signal;HPM_P1;HPM_P2
2022/07/29 00:09:41;;;;;;;6.60;2.47;;;;;;;15.63;49.33;100443.41;30732378;28;97382;-64
2022/07/29 00:24:41;;;;;;;4.63;2.97;;;;;;;15.51;50.00;100451.22;30730910;28;100944;-65
2022/07/29 00:39:41;;;;;;;6.82;2.78;;;;;;;15.40;50.41;100431.09;30729772;28;96767;-64
2022/07/29 00:54:42;;;;;;;6.40;2.20;;;;;;;15.29;50.98;100430.78;30744767;28;96845;-65
2022/07/29 01:09:44;;;;;;;5.03;3.13;;;;;;;15.11;51.29;100429.41;30748278;28;98714;-64
2022/07/29 01:25:09;;;;;;;8.30;2.80;;;;;;;14.92;52.37;100435.47;30746561;28;96543;-65
2022/07/29 01:40:18;;;;;;;3.60;2.30;;;;;;;14.77;53.13;100420.25;30745542;28;96853;-63
2022/07/29 01:55:22;;;;;;;3.77;2.40;;;;;;;14.62;53.59;100411.44;30742438;28;97369;-71
2022/07/29 02:10:27;;;;;;;8.13;2.47;;;;;;;14.53;54.50;100406.19;30742075;28;97481;-64
2022/07/29 02:25:28;;;;;;;5.70;2.50;;;;;;;14.42;54.78;100397.81;30741580;28;96731;-63
2022/07/29 02:40:29;;;;;;;6.73;2.77;;;;;;;14.20;54.87;100403.13;30738931;28;96809;-62
2022/07/29 02:55:33;;;;;;;5.15;2.58;;;;;;;14.07;55.95;100401.16;30737139;28;97479;-63
2022/07/29 03:10:36;;;;;;;6.90;2.70;;;;;;;13.97;56.67;100406.81;30734951;28;96728;-63
2022/07/29 03:25:37;;;;;;;7.03;2.73;;;;;;;13.86;57.33;100409.97;30734357;28;96984;-63
2022/07/29 03:40:52;;;;;;;9.80;3.22;;;;;;;13.88;57.79;100416.78;30732996;28;97442;-65
2022/07/29 03:55:58;;;;;;;8.37;3.33;;;;;;;14.03;57.99;100423.97;30729063;28;97405;-64
2022/07/29 04:10:59;;;;;;;11.13;3.30;;;;;;;14.26;58.29;100428.38;30728686;28;96857;-63
2022/07/29 04:26:00;;;;;;;6.67;2.60;;;;;;;14.68;58.09;100419.56;30738562;28;96786;-63
2022/07/29 04:41:01;;;;;;;12.30;3.00;;;;;;;15.44;57.14;100417.28;30746202;28;97130;-64
2022/07/29 04:56:02;;;;;;;6.30;2.58;;;;;;;16.40;56.21;100416.47;30734089;28;97201;-63
2022/07/29 05:11:03;;;;;;;4.03;2.10;;;;;;;17.08;54.78;100415.56;30738559;28;97250;-65
2022/07/29 05:26:03;;;;;;;6.17;2.40;;;;;;;17.48;53.46;100414.69;30788887;28;96971;-68
2022/07/29 05:41:05;;;;;;;6.25;2.33;;;;;;;17.98;52.70;100420.34;30793564;28;96928;-64
2022/07/29 05:56:05;;;;;;;4.17;2.30;;;;;;;18.69;51.48;100418.53;30724588;28;97445;-64
2022/07/29 06:11:07;;;;;;;4.63;2.22;;;;;;;19.36;50.33;100415.28;30726975;28;97378;-64
2022/07/29 06:26:08;;;;;;;6.07;2.50;;;;;;;20.53;48.38;100413.50;30726275;28;96825;-76
2022/07/29 06:41:12;;;;;;;4.63;1.67;;;;;;;21.47;46.06;100406.53;30727679;28;97353;-64
2022/07/29 06:56:13;;;;;;;4.33;1.70;;;;;;;22.52;43.89;100424.69;30723624;28;97997;-64
2022/07/29 07:11:14;;;;;;;3.07;1.60;;;;;;;22.64;42.11;100409.97;30723935;28;97306;-64
2022/07/29 07:26:14;;;;;;;3.70;1.63;;;;;;;23.23;41.24;100399.78;30723875;28;96903;-65
2022/07/29 07:41:14;;;;;;;2.70;1.60;;;;;;;24.16;39.34;100393.63;30730745;28;97449;-63
2022/07/29 07:56:16;;;;;;;8.70;1.85;;;;;;;24.45;38.59;100402.38;30729801;28;97281;-63
2022/07/29 08:11:16;;;;;;;4.27;1.60;;;;;;;24.90;38.21;100403.03;30748675;28;97307;-68
2022/07/29 08:26:17;;;;;;;1.95;1.42;;;;;;;25.48;37.27;100388.75;30744848;28;97827;-67
2022/07/29 08:41:21;;;;;;;6.05;1.60;;;;;;;25.92;36.76;100396.56;30746553;28;97081;-66
2022/07/29 08:56:22;;;;;;;4.50;1.73;;;;;;;26.50;36.05;100384.69;30744361;28;98529;-65
2022/07/29 09:11:22;;;;;;;2.50;2.00;;;;;;;27.91;33.35;100374.00;30743723;28;97762;-67
2022/07/29 09:26:28;;;;;;;5.55;1.98;;;;;;;28.79;32.15;100370.72;30743905;28;96705;-65
2022/07/29 09:41:29;;;;;;;6.57;2.10;;;;;;;28.11;33.08;100361.34;30740423;28;97048;-65
2022/07/29 09:56:40;;;;;;;10.70;2.23;;;;;;;27.61;33.43;100351.19;30737765;28;96856;-66
2022/07/29 10:11:40;;;;;;;4.00;2.00;;;;;;;27.67;33.83;100346.50;30735685;28;97468;-70
2022/07/29 10:26:41;;;;;;;7.85;2.17;;;;;;;27.96;33.67;100338.41;30735171;28;97259;-67
2022/07/29 10:42:01;;;;;;;3.37;1.60;;;;;;;29.17;32.26;100337.97;30735609;28;96777;-71
2022/07/29 10:57:21;;;;;;;4.20;2.17;;;;;;;30.19;30.60;100324.03;30735487;28;96818;-69
2022/07/29 11:12:36;;;;;;;4.77;1.90;;;;;;;30.45;29.88;100320.91;30733835;28;96737;-67
2022/07/29 11:27:39;;;;;;;5.37;2.00;;;;;;;30.81;28.95;100314.75;30732246;28;97396;-68
2022/07/29 11:42:41;;;;;;;7.13;1.77;;;;;;;29.63;29.80;100314.66;30730001;28;96781;-66
2022/07/29 11:58:00;;;;;;;3.70;1.90;;;;;;;29.51;30.00;100324.16;30728872;28;96762;-68
2022/07/29 12:13:01;;;;;;;3.13;2.07;;;;;;;30.03;29.72;100312.47;30727936;28;96861;-66
2022/07/29 12:28:07;;;;;;;5.18;2.58;;;;;;;30.05;30.38;100297.31;30725751;28;97439;-69
2022/07/29 12:43:10;;;;;;;4.43;2.20;;;;;;;29.98;30.08;100285.91;30731687;28;99166;-66
2022/07/29 12:58:10;;;;;;;5.77;2.50;;;;;;;30.04;30.09;100281.97;30745376;28;96872;-68
2022/07/29 13:13:13;;;;;;;7.65;2.20;;;;;;;31.27;29.21;100253.34;30743905;28;97352;-67
2022/07/29 13:28:14;;;;;;;7.70;2.23;;;;;;;31.29;28.65;100247.53;30741877;28;96727;-67
2022/07/29 13:43:14;;;;;;;5.22;2.40;;;;;;;30.80;29.08;100239.72;30740665;28;97593;-67
2022/07/29 13:58:14;;;;;;;8.18;2.55;;;;;;;29.96;30.51;100227.72;30734955;28;96990;-68
2022/07/29 14:13:15;;;;;;;7.35;2.70;;;;;;;30.03;31.01;100228.16;30739345;28;100981;-68
2022/07/29 14:28:15;;;;;;;4.40;2.13;;;;;;;30.01;31.04;100213.91;30737379;28;96826;-68
2022/07/29 14:43:17;;;;;;;7.07;2.50;;;;;;;29.44;31.86;100210.38;30735536;28;97489;-67
2022/07/29 14:58:17;;;;;;;3.65;2.20;;;;;;;28.73;32.82;100208.22;30733944;28;96700;-66
2022/07/29 15:13:17;;;;;;;5.70;3.50;;;;;;;28.03;33.79;100202.06;30745741;28;97849;-67
2022/07/29 15:28:18;;;;;;;5.22;2.45;;;;;;;27.63;34.64;100198.50;30730233;28;96828;-66
2022/07/29 15:43:18;;;;;;;6.82;2.75;;;;;;;27.36;35.71;100182.53;30729936;28;97000;-65
2022/07/29 15:58:18;;;;;;;7.63;2.70;;;;;;;27.00;36.22;100180.78;30717687;28;96939;-65
2022/07/29 16:13:19;;;;;;;7.07;2.63;;;;;;;26.54;37.28;100175.44;30717527;28;96829;-65
2022/07/29 16:28:19;;;;;;;7.53;3.30;;;;;;;25.92;40.47;100164.59;30739871;28;96793;-63
2022/07/29 16:43:19;;;;;;;7.18;2.92;;;;;;;25.73;42.53;100147.13;30745379;28;96672;-64
2022/07/29 16:58:20;;;;;;;6.53;3.30;;;;;;;25.28;43.90;100154.97;30742480;28;97130;-68
2022/07/29 17:13:20;;;;;;;5.07;3.35;;;;;;;24.94;44.71;100152.69;30744818;28;98224;-68
2022/07/29 17:28:20;;;;;;;9.57;3.10;;;;;;;24.21;46.21;100150.63;30741806;28;96807;-65
2022/07/29 17:43:21;;;;;;;5.07;3.20;;;;;;;23.70;48.11;100172.78;30742224;28;101319;-66
2022/07/29 17:58:21;;;;;;;;;;;;;;;23.28;49.04;100177.81;30740046;28;96767;-65
2022/07/29 18:13:22;;;;;;;4.37;3.20;;;;;;;22.93;50.72;100189.88;30739401;28;97211;-65
2022/07/29 18:28:22;;;;;;;6.95;4.03;;;;;;;23.05;51.05;100186.22;30738661;28;97360;-64
2022/07/29 18:43:22;;;;;;;8.33;3.57;;;;;;;22.87;51.57;100187.34;30736149;28;99987;-69
2022/07/29 18:58:23;;;;;;;8.33;3.00;;;;;;;22.68;52.20;100178.66;30735655;28;97492;-63
2022/07/29 19:13:23;;;;;;;29.87;14.23;;;;;;;22.67;52.48;100193.34;30733848;28;96757;-66
2022/07/29 19:28:24;;;;;;;8.43;4.30;;;;;;;22.73;52.53;100178.75;30728771;28;97468;-65
2022/07/29 19:43:24;;;;;;;9.88;4.38;;;;;;;22.82;52.83;100180.78;30728862;28;96751;-70
2022/07/29 19:58:24;;;;;;;13.27;3.93;;;;;;;22.57;53.21;100170.41;30729570;28;96793;-71
2022/07/29 20:13:25;;;;;;;7.67;4.40;;;;;;;22.11;54.22;100175.94;30729575;28;96949;-70
2022/07/29 20:28:25;;;;;;;10.13;4.17;;;;;;;21.78;55.53;100183.00;30728511;28;96819;-66
2022/07/29 20:43:26;;;;;;;10.07;6.00;;;;;;;21.73;55.92;100198.34;30727336;28;97121;-71
2022/07/29 20:58:26;;;;;;;10.15;4.97;;;;;;;21.81;56.31;100197.94;30726664;28;96838;-65
2022/07/29 21:13:27;;;;;;;10.67;5.37;;;;;;;22.13;55.91;100184.66;30743993;28;97491;-71
2022/07/29 21:28:35;;;;;;;7.33;4.37;;;;;;;21.91;55.93;100176.44;30746592;28;97706;-72
2022/07/29 21:43:35;;;;;;;8.97;4.87;;;;;;;21.58;56.42;100160.94;30745146;28;97084;-65
2022/07/29 21:58:36;;;;;;;9.23;5.60;;;;;;;21.32;57.25;100179.41;30742833;28;97509;-71
2022/07/29 22:13:36;;;;;;;11.47;5.10;;;;;;;21.10;57.93;100150.31;30741501;28;97353;-64
2022/07/29 22:28:36;;;;;;;8.87;4.93;;;;;;;20.83;57.91;100155.47;30738300;28;101610;-67
2022/07/29 22:43:38;;;;;;;6.22;5.00;;;;;;;20.33;58.11;100126.22;30740139;28;97446;-64
2022/07/29 22:58:39;;;;;;;16.47;4.80;;;;;;;20.52;57.96;100100.66;30737900;28;96859;-70
2022/07/29 23:13:39;;;;;;;7.22;4.20;;;;;;;20.40;57.12;100113.38;30736311;28;110737;-65
2022/07/29 23:28:39;;;;;;;8.02;3.83;;;;;;;20.31;56.56;100093.94;30736017;28;96774;-64
2022/07/29 23:43:40;;;;;;;8.02;3.60;;;;;;;19.70;56.57;100087.97;30735275;28;96705;-69
2022/07/29 23:58:40;;;;;;;6.75;3.15;;;;;;;19.28;56.16;100068.00;30733332;28;96737;-65
